sensor_id;sensor_type;location;lat;lon;timestamp;temperature;humidity
16970;DHT22;8601;48.718;8.992;2022-12-11T00:00:48;-2.40;99.90
16970;DHT22;8601;48.718;8.992;2022-12-11T00:03:15;-2.50;99.90
16970;DHT22;8601;48.718;8.992;2022-12-11T00:05:47;-2.50;99.90
16970;DHT22;8601;48.718;8.992;2022-12-11T00:08:50;-2.50;99.90
16970;DHT22;8601;48.718;8.992;2022-12-11T00:11:27;-2.60;99.90
16970;DHT22;8601;48.718;8.992;2022-12-11T00:13:54;-2.60;99.90
16970;DHT22;8601;48.718;8.992;2022-12-11T00:16:25;-2.60;99.90
16970;DHT22;8601;48.718;8.992;2022-12-11T00:18:51;-2.60;99.90
16970;DHT22;8601;48.718;8.992;2022-12-11T00:21:20;-2.60;99.90
16970;DHT22;8601;48.718;8.992;2022-12-11T00:23:53;-2.60;99.90
16970;DHT22;8601;48.718;8.992;2022-12-11T00:26:22;-2.70;99.90
16970;DHT22;8601;48.718;8.992;2022-12-11T00:28:53;-2.80;99.90
16970;DHT22;8601;48.718;8.992;2022-12-11T00:31:22;-3.00;99.90
16970;DHT22;8601;48.718;8.992;2022-12-11T00:33:50;-3.10;99.90
16970;DHT22;8601;48.718;8.992;2022-12-11T00:36:19;-3.10;99.90
16970;DHT22;8601;48.718;8.992;2022-12-11T00:41:57;-3.00;99.90
16970;DHT22;8601;48.718;8.992;2022-12-11T00:44:25;-3.00;99.90
16970;DHT22;8601;48.718;8.992;2022-12-11T00:47:00;-2.80;99.90
16970;DHT22;8601;48.718;8.992;2022-12-11T00:49:30;-2.60;99.90
16970;DHT22;8601;48.718;8.992;2022-12-11T00:51:57;-2.50;99.90
16970;DHT22;8601;48.718;8.992;2022-12-11T00:54:26;-2.40;99.90
16970;DHT22;8601;48.718;8.992;2022-12-11T00:56:54;-2.40;99.90
16970;DHT22;8601;48.718;8.992;2022-12-11T00:59:21;-2.30;99.90
16970;DHT22;8601;48.718;8.992;2022-12-11T01:01:54;-2.30;99.90
16970;DHT22;8601;48.718;8.992;2022-12-11T01:04:21;-2.30;99.90
16970;DHT22;8601;48.718;8.992;2022-12-11T01:06:53;-2.30;99.90
16970;DHT22;8601;48.718;8.992;2022-12-11T01:09:20;-2.20;99.90
16970;DHT22;8601;48.718;8.992;2022-12-11T01:12:26;-2.20;99.90
16970;DHT22;8601;48.718;8.992;2022-12-11T01:14:53;-2.10;99.90
16970;DHT22;8601;48.718;8.992;2022-12-11T01:17:20;-2.10;99.90
16970;DHT22;8601;48.718;8.992;2022-12-11T01:19:47;-2.10;99.90
16970;DHT22;8601;48.718;8.992;2022-12-11T01:22:15;-2.00;99.90
16970;DHT22;8601;48.718;8.992;2022-12-11T01:24:42;-2.20;99.90
16970;DHT22;8601;48.718;8.992;2022-12-11T01:27:09;-2.10;99.90
16970;DHT22;8601;48.718;8.992;2022-12-11T01:29:36;-2.10;99.90
16970;DHT22;8601;48.718;8.992;2022-12-11T01:32:12;-2.10;99.90
16970;DHT22;8601;48.718;8.992;2022-12-11T01:34:46;-2.00;99.90
16970;DHT22;8601;48.718;8.992;2022-12-11T01:37:15;-2.00;99.90
16970;DHT22;8601;48.718;8.992;2022-12-11T01:39:52;-2.10;99.90
16970;DHT22;8601;48.718;8.992;2022-12-11T01:42:19;-2.00;99.90
16970;DHT22;8601;48.718;8.992;2022-12-11T01:45:24;-1.90;99.90
16970;DHT22;8601;48.718;8.992;2022-12-11T01:47:54;-2.00;99.90
16970;DHT22;8601;48.718;8.992;2022-12-11T01:50:22;-2.00;99.90
16970;DHT22;8601;48.718;8.992;2022-12-11T01:52:51;-1.90;99.90
16970;DHT22;8601;48.718;8.992;2022-12-11T01:55:19;-1.80;99.90
16970;DHT22;8601;48.718;8.992;2022-12-11T01:57:59;-1.70;99.90
16970;DHT22;8601;48.718;8.992;2022-12-11T02:00:28;-1.80;99.90
16970;DHT22;8601;48.718;8.992;2022-12-11T02:03:00;-1.70;99.90
16970;DHT22;8601;48.718;8.992;2022-12-11T02:05:38;-1.40;99.90
16970;DHT22;8601;48.718;8.992;2022-12-11T02:08:07;-1.60;99.90
16970;DHT22;8601;48.718;8.992;2022-12-11T02:10:50;-1.60;99.90
16970;DHT22;8601;48.718;8.992;2022-12-11T02:13:24;-1.70;99.90
16970;DHT22;8601;48.718;8.992;2022-12-11T02:15:59;-1.70;99.90
16970;DHT22;8601;48.718;8.992;2022-12-11T02:18:33;-1.70;99.90
16970;DHT22;8601;48.718;8.992;2022-12-11T02:21:07;-1.70;99.90
16970;DHT22;8601;48.718;8.992;2022-12-11T02:24:02;-1.70;99.90
16970;DHT22;8601;48.718;8.992;2022-12-11T02:26:48;-1.70;99.90
16970;DHT22;8601;48.718;8.992;2022-12-11T02:29:23;-1.70;99.90
16970;DHT22;8601;48.718;8.992;2022-12-11T02:31:54;-1.70;99.90
16970;DHT22;8601;48.718;8.992;2022-12-11T02:34:29;-1.60;99.90
16970;DHT22;8601;48.718;8.992;2022-12-11T02:37:19;-1.70;99.90
16970;DHT22;8601;48.718;8.992;2022-12-11T02:39:49;-1.60;99.90
16970;DHT22;8601;48.718;8.992;2022-12-11T02:42:18;-1.60;99.90
16970;DHT22;8601;48.718;8.992;2022-12-11T02:44:47;-1.60;99.90
16970;DHT22;8601;48.718;8.992;2022-12-11T02:47:16;-1.50;99.90
16970;DHT22;8601;48.718;8.992;2022-12-11T02:49:54;-1.50;99.90
16970;DHT22;8601;48.718;8.992;2022-12-11T02:52:22;-1.50;99.90
16970;DHT22;8601;48.718;8.992;2022-12-11T02:54:53;-1.50;99.90
16970;DHT22;8601;48.718;8.992;2022-12-11T02:57:26;-1.50;99.90
16970;DHT22;8601;48.718;8.992;2022-12-11T02:59:54;-1.60;99.90
16970;DHT22;8601;48.718;8.992;2022-12-11T03:02:40;-1.80;99.90
16970;DHT22;8601;48.718;8.992;2022-12-11T03:05:08;-1.80;99.90
16970;DHT22;8601;48.718;8.992;2022-12-11T03:07:38;-1.80;99.90
16970;DHT22;8601;48.718;8.992;2022-12-11T03:10:07;-1.80;99.90
16970;DHT22;8601;48.718;8.992;2022-12-11T03:12:37;-1.70;99.90
16970;DHT22;8601;48.718;8.992;2022-12-11T03:15:10;-1.70;99.90
16970;DHT22;8601;48.718;8.992;2022-12-11T03:17:52;-1.70;99.90
16970;DHT22;8601;48.718;8.992;2022-12-11T03:20:29;-1.60;99.90
16970;DHT22;8601;48.718;8.992;2022-12-11T03:23:01;-1.60;99.90
16970;DHT22;8601;48.718;8.992;2022-12-11T03:25:51;-1.60;99.90
16970;DHT22;8601;48.718;8.992;2022-12-11T03:28:25;-1.60;99.90
16970;DHT22;8601;48.718;8.992;2022-12-11T03:30:55;-1.60;99.90
16970;DHT22;8601;48.718;8.992;2022-12-11T03:33:25;-1.60;99.90
16970;DHT22;8601;48.718;8.992;2022-12-11T03:35:55;-1.60;99.90
16970;DHT22;8601;48.718;8.992;2022-12-11T03:38:32;-1.60;99.90
16970;DHT22;8601;48.718;8.992;2022-12-11T03:41:03;-1.60;99.90
16970;DHT22;8601;48.718;8.992;2022-12-11T03:43:31;-1.50;99.90
16970;DHT22;8601;48.718;8.992;2022-12-11T03:46:01;-1.70;99.90
16970;DHT22;8601;48.718;8.992;2022-12-11T03:48:32;-1.60;99.90
16970;DHT22;8601;48.718;8.992;2022-12-11T03:51:04;-1.60;99.90
16970;DHT22;8601;48.718;8.992;2022-12-11T03:53:32;-1.60;99.90
16970;DHT22;8601;48.718;8.992;2022-12-11T03:56:00;-1.50;99.90
16970;DHT22;8601;48.718;8.992;2022-12-11T03:58:28;-1.50;99.90
16970;DHT22;8601;48.718;8.992;2022-12-11T04:00:55;-1.50;99.90
16970;DHT22;8601;48.718;8.992;2022-12-11T04:03:23;-1.60;99.90
16970;DHT22;8601;48.718;8.992;2022-12-11T04:05:55;-1.80;99.90
16970;DHT22;8601;48.718;8.992;2022-12-11T04:08:22;-1.80;99.90
16970;DHT22;8601;48.718;8.992;2022-12-11T04:10:49;-1.80;99.90
16970;DHT22;8601;48.718;8.992;2022-12-11T04:13:38;-1.70;99.90
16970;DHT22;8601;48.718;8.992;2022-12-11T04:16:06;-1.60;99.90
16970;DHT22;8601;48.718;8.992;2022-12-11T04:18:34;-1.60;99.90
16970;DHT22;8601;48.718;8.992;2022-12-11T04:21:18;-1.70;99.90
16970;DHT22;8601;48.718;8.992;2022-12-11T04:24:03;-1.80;99.90
16970;DHT22;8601;48.718;8.992;2022-12-11T04:26:43;-1.70;99.90
16970;DHT22;8601;48.718;8.992;2022-12-11T04:29:21;-1.60;99.90
16970;DHT22;8601;48.718;8.992;2022-12-11T04:31:48;-1.70;99.90
16970;DHT22;8601;48.718;8.992;2022-12-11T04:34:35;-1.80;99.90
16970;DHT22;8601;48.718;8.992;2022-12-11T04:37:01;-1.80;99.90
16970;DHT22;8601;48.718;8.992;2022-12-11T04:39:28;-1.80;99.90
16970;DHT22;8601;48.718;8.992;2022-12-11T04:41:55;-1.90;99.90
16970;DHT22;8601;48.718;8.992;2022-12-11T04:44:22;-2.00;99.90
16970;DHT22;8601;48.718;8.992;2022-12-11T04:46:49;-1.90;99.90
16970;DHT22;8601;48.718;8.992;2022-12-11T04:49:16;-1.90;99.90
16970;DHT22;8601;48.718;8.992;2022-12-11T04:51:44;-1.90;99.90
16970;DHT22;8601;48.718;8.992;2022-12-11T04:54:11;-1.80;99.90
16970;DHT22;8601;48.718;8.992;2022-12-11T04:56:37;-1.80;99.90
16970;DHT22;8601;48.718;8.992;2022-12-11T04:59:04;-1.90;99.90
16970;DHT22;8601;48.718;8.992;2022-12-11T05:01:31;-1.90;99.90
16970;DHT22;8601;48.718;8.992;2022-12-11T05:03:58;-1.80;99.90
16970;DHT22;8601;48.718;8.992;2022-12-11T05:06:25;-1.80;99.90
16970;DHT22;8601;48.718;8.992;2022-12-11T05:08:53;-1.90;99.90
16970;DHT22;8601;48.718;8.992;2022-12-11T05:11:20;-2.00;99.90
16970;DHT22;8601;48.718;8.992;2022-12-11T05:13:47;-2.00;99.90
16970;DHT22;8601;48.718;8.992;2022-12-11T05:16:15;-1.90;99.90
16970;DHT22;8601;48.718;8.992;2022-12-11T05:18:42;-1.90;99.90
16970;DHT22;8601;48.718;8.992;2022-12-11T05:21:10;-1.90;99.90
16970;DHT22;8601;48.718;8.992;2022-12-11T05:23:46;-1.90;99.90
16970;DHT22;8601;48.718;8.992;2022-12-11T05:26:17;-1.90;99.90
16970;DHT22;8601;48.718;8.992;2022-12-11T05:28:45;-1.90;99.90
16970;DHT22;8601;48.718;8.992;2022-12-11T05:31:14;-1.90;99.90
16970;DHT22;8601;48.718;8.992;2022-12-11T05:33:41;-1.90;99.90
16970;DHT22;8601;48.718;8.992;2022-12-11T05:36:12;-1.80;99.90
16970;DHT22;8601;48.718;8.992;2022-12-11T05:38:40;-1.90;99.90
16970;DHT22;8601;48.718;8.992;2022-12-11T05:41:17;-2.00;99.90
16970;DHT22;8601;48.718;8.992;2022-12-11T05:43:44;-2.00;99.90
16970;DHT22;8601;48.718;8.992;2022-12-11T05:46:13;-2.10;99.90
16970;DHT22;8601;48.718;8.992;2022-12-11T05:48:41;-2.10;99.90
16970;DHT22;8601;48.718;8.992;2022-12-11T05:51:08;-2.20;99.90
16970;DHT22;8601;48.718;8.992;2022-12-11T05:53:36;-2.20;99.90
16970;DHT22;8601;48.718;8.992;2022-12-11T05:56:05;-2.20;99.90
16970;DHT22;8601;48.718;8.992;2022-12-11T05:58:34;-2.20;99.90
16970;DHT22;8601;48.718;8.992;2022-12-11T06:01:05;-2.20;99.90
16970;DHT22;8601;48.718;8.992;2022-12-11T06:03:51;-2.10;99.90
16970;DHT22;8601;48.718;8.992;2022-12-11T06:06:18;-2.30;99.90
16970;DHT22;8601;48.718;8.992;2022-12-11T06:08:57;-2.40;99.90
16970;DHT22;8601;48.718;8.992;2022-12-11T06:11:26;-2.40;99.90
16970;DHT22;8601;48.718;8.992;2022-12-11T06:13:55;-2.30;99.90
16970;DHT22;8601;48.718;8.992;2022-12-11T06:16:23;-2.30;99.90
16970;DHT22;8601;48.718;8.992;2022-12-11T06:18:50;-2.40;99.90
16970;DHT22;8601;48.718;8.992;2022-12-11T06:21:19;-2.50;99.90
16970;DHT22;8601;48.718;8.992;2022-12-11T06:23:48;-2.60;99.90
16970;DHT22;8601;48.718;8.992;2022-12-11T06:26:37;-2.90;99.90
16970;DHT22;8601;48.718;8.992;2022-12-11T06:29:06;-3.00;99.90
16970;DHT22;8601;48.718;8.992;2022-12-11T06:31:32;-2.90;99.90
16970;DHT22;8601;48.718;8.992;2022-12-11T06:33:59;-3.00;99.90
16970;DHT22;8601;48.718;8.992;2022-12-11T06:37:03;-3.10;99.90
16970;DHT22;8601;48.718;8.992;2022-12-11T06:39:31;-2.90;99.90
16970;DHT22;8601;48.718;8.992;2022-12-11T06:41:58;-2.80;99.90
16970;DHT22;8601;48.718;8.992;2022-12-11T06:44:27;-2.80;99.90
16970;DHT22;8601;48.718;8.992;2022-12-11T06:46:53;-2.90;99.90
16970;DHT22;8601;48.718;8.992;2022-12-11T06:49:20;-3.00;99.90
16970;DHT22;8601;48.718;8.992;2022-12-11T06:51:47;-3.00;99.90
16970;DHT22;8601;48.718;8.992;2022-12-11T06:54:14;-3.00;99.90
16970;DHT22;8601;48.718;8.992;2022-12-11T06:56:41;-3.00;99.90
16970;DHT22;8601;48.718;8.992;2022-12-11T06:59:10;-2.90;99.90
16970;DHT22;8601;48.718;8.992;2022-12-11T07:01:39;-2.90;99.90
16970;DHT22;8601;48.718;8.992;2022-12-11T07:04:07;-2.80;99.90
16970;DHT22;8601;48.718;8.992;2022-12-11T07:06:56;-2.80;99.90
16970;DHT22;8601;48.718;8.992;2022-12-11T07:09:23;-2.70;99.90
16970;DHT22;8601;48.718;8.992;2022-12-11T07:11:50;-2.60;99.90
16970;DHT22;8601;48.718;8.992;2022-12-11T07:14:17;-2.60;99.90
16970;DHT22;8601;48.718;8.992;2022-12-11T07:16:45;-2.60;99.90
16970;DHT22;8601;48.718;8.992;2022-12-11T07:19:12;-2.60;99.90
16970;DHT22;8601;48.718;8.992;2022-12-11T07:21:39;-2.60;99.90
16970;DHT22;8601;48.718;8.992;2022-12-11T07:24:06;-2.30;99.90
16970;DHT22;8601;48.718;8.992;2022-12-11T07:26:33;-2.50;99.90
16970;DHT22;8601;48.718;8.992;2022-12-11T07:29:05;-2.60;99.90
16970;DHT22;8601;48.718;8.992;2022-12-11T07:31:32;-2.70;99.90
16970;DHT22;8601;48.718;8.992;2022-12-11T07:34:02;-2.70;99.90
16970;DHT22;8601;48.718;8.992;2022-12-11T07:36:30;-2.60;99.90
16970;DHT22;8601;48.718;8.992;2022-12-11T07:38:57;-2.50;99.90
16970;DHT22;8601;48.718;8.992;2022-12-11T07:41:25;-2.40;99.90
16970;DHT22;8601;48.718;8.992;2022-12-11T07:43:53;-2.50;99.90
16970;DHT22;8601;48.718;8.992;2022-12-11T07:46:22;-2.40;99.90
16970;DHT22;8601;48.718;8.992;2022-12-11T07:48:49;-2.50;99.90
16970;DHT22;8601;48.718;8.992;2022-12-11T07:51:21;-2.40;99.90
16970;DHT22;8601;48.718;8.992;2022-12-11T07:53:51;-2.40;99.90
16970;DHT22;8601;48.718;8.992;2022-12-11T07:56:18;-2.40;99.90
16970;DHT22;8601;48.718;8.992;2022-12-11T07:58:46;-2.30;99.90
16970;DHT22;8601;48.718;8.992;2022-12-11T08:01:29;-2.20;99.90
16970;DHT22;8601;48.718;8.992;2022-12-11T08:03:56;-2.10;99.90
16970;DHT22;8601;48.718;8.992;2022-12-11T08:06:27;-2.10;99.90
16970;DHT22;8601;48.718;8.992;2022-12-11T08:08:54;-2.10;99.90
16970;DHT22;8601;48.718;8.992;2022-12-11T08:11:22;-2.00;99.90
16970;DHT22;8601;48.718;8.992;2022-12-11T08:13:49;-2.20;99.90
16970;DHT22;8601;48.718;8.992;2022-12-11T08:16:16;-2.20;99.90
16970;DHT22;8601;48.718;8.992;2022-12-11T08:18:45;-2.20;99.90
16970;DHT22;8601;48.718;8.992;2022-12-11T08:21:13;-2.20;99.90
16970;DHT22;8601;48.718;8.992;2022-12-11T08:23:41;-2.10;99.90
16970;DHT22;8601;48.718;8.992;2022-12-11T08:26:10;-2.10;99.90
16970;DHT22;8601;48.718;8.992;2022-12-11T08:28:38;-2.10;99.90
16970;DHT22;8601;48.718;8.992;2022-12-11T08:31:07;-2.10;99.90
16970;DHT22;8601;48.718;8.992;2022-12-11T08:33:59;-2.20;99.90
16970;DHT22;8601;48.718;8.992;2022-12-11T08:36:26;-2.20;99.90
16970;DHT22;8601;48.718;8.992;2022-12-11T08:38:55;-2.20;99.90
16970;DHT22;8601;48.718;8.992;2022-12-11T08:41:24;-2.20;99.90
16970;DHT22;8601;48.718;8.992;2022-12-11T08:43:51;-2.10;99.90
16970;DHT22;8601;48.718;8.992;2022-12-11T08:46:49;-2.00;99.90
16970;DHT22;8601;48.718;8.992;2022-12-11T08:49:16;-2.10;99.90
16970;DHT22;8601;48.718;8.992;2022-12-11T08:51:43;-2.30;99.90
16970;DHT22;8601;48.718;8.992;2022-12-11T08:54:20;-2.30;99.90
16970;DHT22;8601;48.718;8.992;2022-12-11T08:56:47;-2.10;99.90
16970;DHT22;8601;48.718;8.992;2022-12-11T08:59:14;-2.00;99.90
16970;DHT22;8601;48.718;8.992;2022-12-11T09:04:48;-1.80;99.90
16970;DHT22;8601;48.718;8.992;2022-12-11T09:07:16;-1.80;99.90
16970;DHT22;8601;48.718;8.992;2022-12-11T09:09:52;-1.70;99.90
16970;DHT22;8601;48.718;8.992;2022-12-11T09:12:22;-1.70;99.90
16970;DHT22;8601;48.718;8.992;2022-12-11T09:17:54;-1.70;99.90
16970;DHT22;8601;48.718;8.992;2022-12-11T09:20:21;-1.70;99.90
16970;DHT22;8601;48.718;8.992;2022-12-11T09:23:25;-1.80;99.90
16970;DHT22;8601;48.718;8.992;2022-12-11T09:25:54;-1.90;99.90
16970;DHT22;8601;48.718;8.992;2022-12-11T09:28:21;-1.90;99.90
16970;DHT22;8601;48.718;8.992;2022-12-11T09:30:49;-2.00;99.90
16970;DHT22;8601;48.718;8.992;2022-12-11T09:33:15;-1.90;99.90
16970;DHT22;8601;48.718;8.992;2022-12-11T09:35:42;-1.80;99.90
16970;DHT22;8601;48.718;8.992;2022-12-11T09:41:38;-1.80;99.90
16970;DHT22;8601;48.718;8.992;2022-12-11T09:44:15;-1.70;99.90
16970;DHT22;8601;48.718;8.992;2022-12-11T09:46:53;-1.70;99.90
16970;DHT22;8601;48.718;8.992;2022-12-11T09:49:25;-1.60;99.90
16970;DHT22;8601;48.718;8.992;2022-12-11T09:52:09;-1.50;99.90
16970;DHT22;8601;48.718;8.992;2022-12-11T09:54:40;-1.50;99.90
16970;DHT22;8601;48.718;8.992;2022-12-11T10:00:16;-1.30;99.90
16970;DHT22;8601;48.718;8.992;2022-12-11T10:03:05;-1.30;99.90
16970;DHT22;8601;48.718;8.992;2022-12-11T10:05:41;-1.40;99.90
16970;DHT22;8601;48.718;8.992;2022-12-11T10:08:16;-1.40;99.90
16970;DHT22;8601;48.718;8.992;2022-12-11T10:10:51;-1.40;99.90
16970;DHT22;8601;48.718;8.992;2022-12-11T10:13:28;-1.40;99.90
16970;DHT22;8601;48.718;8.992;2022-12-11T10:16:02;-1.30;99.90
16970;DHT22;8601;48.718;8.992;2022-12-11T10:18:30;-1.20;99.90
16970;DHT22;8601;48.718;8.992;2022-12-11T10:21:00;-1.10;99.90
16970;DHT22;8601;48.718;8.992;2022-12-11T10:23:33;-1.10;99.90
16970;DHT22;8601;48.718;8.992;2022-12-11T10:26:05;-1.00;99.90
16970;DHT22;8601;48.718;8.992;2022-12-11T10:28:33;-1.00;99.90
16970;DHT22;8601;48.718;8.992;2022-12-11T10:31:08;-0.90;99.90
16970;DHT22;8601;48.718;8.992;2022-12-11T10:33:42;-0.90;99.90
16970;DHT22;8601;48.718;8.992;2022-12-11T10:36:16;-0.80;99.90
16970;DHT22;8601;48.718;8.992;2022-12-11T10:38:46;-0.80;99.90
16970;DHT22;8601;48.718;8.992;2022-12-11T10:41:16;-0.70;99.90
16970;DHT22;8601;48.718;8.992;2022-12-11T10:43:45;-0.70;99.90
16970;DHT22;8601;48.718;8.992;2022-12-11T10:46:17;-0.60;99.90
16970;DHT22;8601;48.718;8.992;2022-12-11T10:55:23;-0.50;99.90
16970;DHT22;8601;48.718;8.992;2022-12-11T10:57:56;-0.50;99.90
16970;DHT22;8601;48.718;8.992;2022-12-11T11:00:33;-0.50;99.90
16970;DHT22;8601;48.718;8.992;2022-12-11T11:03:04;-0.40;99.90
16970;DHT22;8601;48.718;8.992;2022-12-11T11:09:01;-0.60;99.90
16970;DHT22;8601;48.718;8.992;2022-12-11T11:11:30;-0.50;99.90
16970;DHT22;8601;48.718;8.992;2022-12-11T11:14:05;-0.50;99.90
16970;DHT22;8601;48.718;8.992;2022-12-11T11:16:42;-0.50;99.90
16970;DHT22;8601;48.718;8.992;2022-12-11T11:19:28;-0.30;99.90
16970;DHT22;8601;48.718;8.992;2022-12-11T11:21:58;-0.40;99.90
16970;DHT22;8601;48.718;8.992;2022-12-11T11:24:29;-0.30;99.90
16970;DHT22;8601;48.718;8.992;2022-12-11T11:26:57;-0.20;99.90
16970;DHT22;8601;48.718;8.992;2022-12-11T11:29:28;-0.20;99.90
16970;DHT22;8601;48.718;8.992;2022-12-11T11:31:56;-0.10;99.90
16970;DHT22;8601;48.718;8.992;2022-12-11T11:34:33;-0.10;99.90
16970;DHT22;8601;48.718;8.992;2022-12-11T11:37:00;-0.20;99.90
16970;DHT22;8601;48.718;8.992;2022-12-11T11:39:46;-0.20;99.90
16970;DHT22;8601;48.718;8.992;2022-12-11T11:42:18;-0.20;99.90
16970;DHT22;8601;48.718;8.992;2022-12-11T11:44:56;-0.30;99.90
16970;DHT22;8601;48.718;8.992;2022-12-11T11:47:47;-0.20;99.90
16970;DHT22;8601;48.718;8.992;2022-12-11T11:50:23;-0.20;99.90
16970;DHT22;8601;48.718;8.992;2022-12-11T11:53:23;-0.20;99.90
16970;DHT22;8601;48.718;8.992;2022-12-11T11:56:01;-0.10;99.90
16970;DHT22;8601;48.718;8.992;2022-12-11T11:58:37;-0.10;99.90
16970;DHT22;8601;48.718;8.992;2022-12-11T12:01:10;0.10;99.90
16970;DHT22;8601;48.718;8.992;2022-12-11T12:04:09;0.10;99.90
16970;DHT22;8601;48.718;8.992;2022-12-11T12:07:06;0.10;99.90
16970;DHT22;8601;48.718;8.992;2022-12-11T12:09:43;0.00;99.90
16970;DHT22;8601;48.718;8.992;2022-12-11T12:12:16;0.10;99.90
16970;DHT22;8601;48.718;8.992;2022-12-11T12:15:01;0.00;99.90
16970;DHT22;8601;48.718;8.992;2022-12-11T12:17:57;0.00;99.90
16970;DHT22;8601;48.718;8.992;2022-12-11T12:20:32;0.10;99.90
16970;DHT22;8601;48.718;8.992;2022-12-11T12:23:28;0.10;99.90
16970;DHT22;8601;48.718;8.992;2022-12-11T12:26:06;0.10;99.90
16970;DHT22;8601;48.718;8.992;2022-12-11T12:28:40;0.00;99.90
16970;DHT22;8601;48.718;8.992;2022-12-11T12:31:23;0.10;99.90
16970;DHT22;8601;48.718;8.992;2022-12-11T12:34:04;0.10;99.90
16970;DHT22;8601;48.718;8.992;2022-12-11T12:36:38;0.10;99.90
16970;DHT22;8601;48.718;8.992;2022-12-11T12:39:36;0.10;99.90
16970;DHT22;8601;48.718;8.992;2022-12-11T12:42:13;0.20;99.90
16970;DHT22;8601;48.718;8.992;2022-12-11T12:44:49;0.20;99.90
16970;DHT22;8601;48.718;8.992;2022-12-11T12:47:21;0.20;99.90
16970;DHT22;8601;48.718;8.992;2022-12-11T12:49:49;0.20;99.90
16970;DHT22;8601;48.718;8.992;2022-12-11T12:52:20;0.30;99.90
16970;DHT22;8601;48.718;8.992;2022-12-11T12:55:04;0.10;99.90
16970;DHT22;8601;48.718;8.992;2022-12-11T12:57:42;0.10;99.90
16970;DHT22;8601;48.718;8.992;2022-12-11T13:00:33;0.10;99.90
16970;DHT22;8601;48.718;8.992;2022-12-11T13:03:09;0.20;99.90
16970;DHT22;8601;48.718;8.992;2022-12-11T13:05:40;0.20;99.90
16970;DHT22;8601;48.718;8.992;2022-12-11T13:08:08;0.30;99.90
16970;DHT22;8601;48.718;8.992;2022-12-11T13:10:59;0.20;99.90
16970;DHT22;8601;48.718;8.992;2022-12-11T13:13:35;0.20;99.90
16970;DHT22;8601;48.718;8.992;2022-12-11T13:16:34;0.10;99.90
16970;DHT22;8601;48.718;8.992;2022-12-11T13:19:14;0.20;99.90
16970;DHT22;8601;48.718;8.992;2022-12-11T13:21:41;0.20;99.90
16970;DHT22;8601;48.718;8.992;2022-12-11T13:24:24;0.10;99.90
16970;DHT22;8601;48.718;8.992;2022-12-11T13:26:53;0.20;99.90
16970;DHT22;8601;48.718;8.992;2022-12-11T13:29:38;0.40;99.90
16970;DHT22;8601;48.718;8.992;2022-12-11T13:32:21;0.30;99.90
16970;DHT22;8601;48.718;8.992;2022-12-11T13:35:05;0.50;99.90
16970;DHT22;8601;48.718;8.992;2022-12-11T13:37:37;0.40;99.90
16970;DHT22;8601;48.718;8.992;2022-12-11T13:40:13;0.50;99.90
16970;DHT22;8601;48.718;8.992;2022-12-11T13:42:49;0.60;99.90
16970;DHT22;8601;48.718;8.992;2022-12-11T13:45:20;0.50;99.90
16970;DHT22;8601;48.718;8.992;2022-12-11T13:47:48;0.50;99.90
16970;DHT22;8601;48.718;8.992;2022-12-11T13:50:19;0.60;99.90
16970;DHT22;8601;48.718;8.992;2022-12-11T13:52:54;0.70;99.90
16970;DHT22;8601;48.718;8.992;2022-12-11T13:55:32;0.70;99.90
16970;DHT22;8601;48.718;8.992;2022-12-11T13:58:00;0.60;99.90
16970;DHT22;8601;48.718;8.992;2022-12-11T14:00:30;0.60;99.90
16970;DHT22;8601;48.718;8.992;2022-12-11T14:03:12;0.60;99.90
16970;DHT22;8601;48.718;8.992;2022-12-11T14:05:40;0.60;99.90
16970;DHT22;8601;48.718;8.992;2022-12-11T14:08:07;0.60;99.90
16970;DHT22;8601;48.718;8.992;2022-12-11T14:10:58;0.50;99.90
16970;DHT22;8601;48.718;8.992;2022-12-11T14:16:58;0.30;99.90
16970;DHT22;8601;48.718;8.992;2022-12-11T14:19:33;0.40;99.90
16970;DHT22;8601;48.718;8.992;2022-12-11T14:22:02;0.30;99.90
16970;DHT22;8601;48.718;8.992;2022-12-11T14:24:30;0.30;99.90
16970;DHT22;8601;48.718;8.992;2022-12-11T14:26:57;0.30;99.90
16970;DHT22;8601;48.718;8.992;2022-12-11T14:29:29;0.10;99.90
16970;DHT22;8601;48.718;8.992;2022-12-11T14:32:01;0.10;99.90
16970;DHT22;8601;48.718;8.992;2022-12-11T14:34:37;0.00;99.90
16970;DHT22;8601;48.718;8.992;2022-12-11T14:37:11;0.00;99.90
16970;DHT22;8601;48.718;8.992;2022-12-11T14:39:54;0.10;99.90
16970;DHT22;8601;48.718;8.992;2022-12-11T14:42:36;0.00;99.90
16970;DHT22;8601;48.718;8.992;2022-12-11T14:45:19;0.00;99.90
16970;DHT22;8601;48.718;8.992;2022-12-11T14:47:51;0.00;99.90
16970;DHT22;8601;48.718;8.992;2022-12-11T14:50:23;-0.20;99.90
16970;DHT22;8601;48.718;8.992;2022-12-11T14:52:54;-0.40;99.90
16970;DHT22;8601;48.718;8.992;2022-12-11T14:55:25;-0.50;99.90
16970;DHT22;8601;48.718;8.992;2022-12-11T14:57:55;-0.30;99.90
16970;DHT22;8601;48.718;8.992;2022-12-11T15:00:25;-0.40;99.90
16970;DHT22;8601;48.718;8.992;2022-12-11T15:03:04;-0.50;99.90
16970;DHT22;8601;48.718;8.992;2022-12-11T15:05:33;-0.60;99.90
16970;DHT22;8601;48.718;8.992;2022-12-11T15:08:01;-0.60;99.90
16970;DHT22;8601;48.718;8.992;2022-12-11T15:10:33;-0.50;99.90
16970;DHT22;8601;48.718;8.992;2022-12-11T15:13:02;-0.60;99.90
16970;DHT22;8601;48.718;8.992;2022-12-11T15:15:32;-0.70;99.90
16970;DHT22;8601;48.718;8.992;2022-12-11T15:18:06;-0.80;99.90
16970;DHT22;8601;48.718;8.992;2022-12-11T15:20:33;-0.90;99.90
16970;DHT22;8601;48.718;8.992;2022-12-11T15:23:06;-1.00;99.90
16970;DHT22;8601;48.718;8.992;2022-12-11T15:25:33;-1.10;99.90
16970;DHT22;8601;48.718;8.992;2022-12-11T15:28:00;-1.10;99.90
16970;DHT22;8601;48.718;8.992;2022-12-11T15:30:30;-1.20;99.90
16970;DHT22;8601;48.718;8.992;2022-12-11T15:33:27;-1.20;99.90
16970;DHT22;8601;48.718;8.992;2022-12-11T15:35:57;-1.30;99.90
16970;DHT22;8601;48.718;8.992;2022-12-11T15:38:38;-1.20;99.90
16970;DHT22;8601;48.718;8.992;2022-12-11T15:41:12;-1.30;99.90
16970;DHT22;8601;48.718;8.992;2022-12-11T15:43:41;-1.30;99.90
16970;DHT22;8601;48.718;8.992;2022-12-11T15:46:11;-1.30;99.90
16970;DHT22;8601;48.718;8.992;2022-12-11T15:48:50;-1.40;99.90
16970;DHT22;8601;48.718;8.992;2022-12-11T15:51:26;-1.40;99.90
16970;DHT22;8601;48.718;8.992;2022-12-11T15:53:54;-1.40;99.90
16970;DHT22;8601;48.718;8.992;2022-12-11T15:56:21;-1.40;99.90
16970;DHT22;8601;48.718;8.992;2022-12-11T15:58:48;-1.40;99.90
16970;DHT22;8601;48.718;8.992;2022-12-11T16:01:15;-1.30;99.90
16970;DHT22;8601;48.718;8.992;2022-12-11T16:03:50;-1.20;99.90
16970;DHT22;8601;48.718;8.992;2022-12-11T16:06:27;-1.20;99.90
16970;DHT22;8601;48.718;8.992;2022-12-11T16:08:54;-1.20;99.90
16970;DHT22;8601;48.718;8.992;2022-12-11T16:11:23;-1.20;99.90
16970;DHT22;8601;48.718;8.992;2022-12-11T16:13:49;-1.20;99.90
16970;DHT22;8601;48.718;8.992;2022-12-11T16:16:16;-1.20;99.90
16970;DHT22;8601;48.718;8.992;2022-12-11T16:18:43;-1.30;99.90
16970;DHT22;8601;48.718;8.992;2022-12-11T16:21:17;-1.40;99.90
16970;DHT22;8601;48.718;8.992;2022-12-11T16:23:44;-1.40;99.90
16970;DHT22;8601;48.718;8.992;2022-12-11T16:26:11;-1.30;99.90
16970;DHT22;8601;48.718;8.992;2022-12-11T16:28:40;-1.30;99.90
16970;DHT22;8601;48.718;8.992;2022-12-11T16:31:09;-1.40;99.90
16970;DHT22;8601;48.718;8.992;2022-12-11T16:33:36;-1.30;99.90
16970;DHT22;8601;48.718;8.992;2022-12-11T16:36:11;-1.40;99.90
16970;DHT22;8601;48.718;8.992;2022-12-11T16:38:55;-1.30;99.90
16970;DHT22;8601;48.718;8.992;2022-12-11T16:41:22;-1.30;99.90
16970;DHT22;8601;48.718;8.992;2022-12-11T16:43:53;-1.20;99.90
16970;DHT22;8601;48.718;8.992;2022-12-11T16:46:21;-1.10;99.90
16970;DHT22;8601;48.718;8.992;2022-12-11T16:48:49;-1.20;99.90
16970;DHT22;8601;48.718;8.992;2022-12-11T16:51:16;-1.10;99.90